sensor_id;sensor_type;location;lat;lon;timestamp;temperature;humidity
45685;DHT22;46836;48.388;16.210;2023-05-07T00:01:39;15.10;99.90
45685;DHT22;46836;48.388;16.210;2023-05-07T00:04:06;15.00;99.90
45685;DHT22;46836;48.388;16.210;2023-05-07T00:06:34;15.00;99.90
45685;DHT22;46836;48.388;16.210;2023-05-07T00:09:02;15.00;99.90
45685;DHT22;46836;48.388;16.210;2023-05-07T00:11:30;14.90;99.90
45685;DHT22;46836;48.388;16.210;2023-05-07T00:13:57;14.90;99.90
45685;DHT22;46836;48.388;16.210;2023-05-07T00:16:24;14.90;99.90
45685;DHT22;46836;48.388;16.210;2023-05-07T00:18:52;14.80;99.90
45685;DHT22;46836;48.388;16.210;2023-05-07T00:21:20;14.70;99.90
45685;DHT22;46836;48.388;16.210;2023-05-07T00:23:48;14.60;99.90
45685;DHT22;46836;48.388;16.210;2023-05-07T00:26:15;14.60;99.90
45685;DHT22;46836;48.388;16.210;2023-05-07T00:28:42;14.50;99.90
45685;DHT22;46836;48.388;16.210;2023-05-07T00:31:09;14.40;99.90
45685;DHT22;46836;48.388;16.210;2023-05-07T00:33:38;14.40;99.90
45685;DHT22;46836;48.388;16.210;2023-05-07T00:36:05;14.30;99.90
45685;DHT22;46836;48.388;16.210;2023-05-07T00:38:32;14.30;99.90
45685;DHT22;46836;48.388;16.210;2023-05-07T00:40:59;14.30;99.90
45685;DHT22;46836;48.388;16.210;2023-05-07T00:43:26;14.30;99.90
45685;DHT22;46836;48.388;16.210;2023-05-07T00:45:55;14.30;99.90
45685;DHT22;46836;48.388;16.210;2023-05-07T00:48:22;14.20;99.90
45685;DHT22;46836;48.388;16.210;2023-05-07T00:50:51;14.20;99.90
45685;DHT22;46836;48.388;16.210;2023-05-07T00:53:18;14.20;99.90
45685;DHT22;46836;48.388;16.210;2023-05-07T00:55:46;14.20;99.90
45685;DHT22;46836;48.388;16.210;2023-05-07T00:58:13;14.20;99.90
45685;DHT22;46836;48.388;16.210;2023-05-07T01:00:40;14.10;99.90
45685;DHT22;46836;48.388;16.210;2023-05-07T01:03:07;14.10;99.90
45685;DHT22;46836;48.388;16.210;2023-05-07T01:05:35;14.00;99.90
45685;DHT22;46836;48.388;16.210;2023-05-07T01:08:03;14.00;99.90
45685;DHT22;46836;48.388;16.210;2023-05-07T01:10:30;14.00;99.90
45685;DHT22;46836;48.388;16.210;2023-05-07T01:12:58;13.90;99.90
45685;DHT22;46836;48.388;16.210;2023-05-07T01:15:27;13.90;99.90
45685;DHT22;46836;48.388;16.210;2023-05-07T01:17:55;13.90;99.90
45685;DHT22;46836;48.388;16.210;2023-05-07T01:20:23;13.80;99.90
45685;DHT22;46836;48.388;16.210;2023-05-07T01:22:51;13.80;99.90
45685;DHT22;46836;48.388;16.210;2023-05-07T01:25:18;13.90;99.90
45685;DHT22;46836;48.388;16.210;2023-05-07T01:27:46;13.80;99.90
45685;DHT22;46836;48.388;16.210;2023-05-07T01:30:13;13.80;99.90
45685;DHT22;46836;48.388;16.210;2023-05-07T01:32:45;13.80;99.90
45685;DHT22;46836;48.388;16.210;2023-05-07T01:35:20;13.80;99.90
45685;DHT22;46836;48.388;16.210;2023-05-07T01:37:49;13.70;99.90
45685;DHT22;46836;48.388;16.210;2023-05-07T01:40:16;13.70;99.90
45685;DHT22;46836;48.388;16.210;2023-05-07T01:42:44;13.70;99.90
45685;DHT22;46836;48.388;16.210;2023-05-07T01:45:12;13.70;99.90
45685;DHT22;46836;48.388;16.210;2023-05-07T01:47:39;13.70;99.90
45685;DHT22;46836;48.388;16.210;2023-05-07T01:50:07;13.70;99.90
45685;DHT22;46836;48.388;16.210;2023-05-07T01:52:37;13.70;99.90
45685;DHT22;46836;48.388;16.210;2023-05-07T01:55:06;13.60;99.90
45685;DHT22;46836;48.388;16.210;2023-05-07T01:57:33;13.60;99.90
45685;DHT22;46836;48.388;16.210;2023-05-07T02:00:00;13.60;99.90
45685;DHT22;46836;48.388;16.210;2023-05-07T02:02:27;13.60;99.90
45685;DHT22;46836;48.388;16.210;2023-05-07T02:04:54;13.60;99.90
45685;DHT22;46836;48.388;16.210;2023-05-07T02:07:21;13.60;99.90
45685;DHT22;46836;48.388;16.210;2023-05-07T02:09:48;13.60;99.90
45685;DHT22;46836;48.388;16.210;2023-05-07T02:12:15;13.60;99.90
45685;DHT22;46836;48.388;16.210;2023-05-07T02:14:42;13.50;99.90
45685;DHT22;46836;48.388;16.210;2023-05-07T02:17:09;13.50;99.90
45685;DHT22;46836;48.388;16.210;2023-05-07T02:19:36;13.50;99.90
45685;DHT22;46836;48.388;16.210;2023-05-07T02:22:03;13.50;99.90
45685;DHT22;46836;48.388;16.210;2023-05-07T02:24:30;13.50;99.90
45685;DHT22;46836;48.388;16.210;2023-05-07T02:26:57;13.40;99.90
45685;DHT22;46836;48.388;16.210;2023-05-07T02:29:24;13.40;99.90
45685;DHT22;46836;48.388;16.210;2023-05-07T02:31:52;13.30;99.90
45685;DHT22;46836;48.388;16.210;2023-05-07T02:34:19;13.30;99.90
45685;DHT22;46836;48.388;16.210;2023-05-07T02:36:47;13.30;99.90
45685;DHT22;46836;48.388;16.210;2023-05-07T02:39:14;13.30;99.90
45685;DHT22;46836;48.388;16.210;2023-05-07T02:41:42;13.30;99.90
45685;DHT22;46836;48.388;16.210;2023-05-07T02:44:09;13.20;99.90
45685;DHT22;46836;48.388;16.210;2023-05-07T02:46:36;13.20;99.90
45685;DHT22;46836;48.388;16.210;2023-05-07T02:49:03;13.20;99.90
45685;DHT22;46836;48.388;16.210;2023-05-07T02:51:31;13.20;99.90
45685;DHT22;46836;48.388;16.210;2023-05-07T02:53:58;13.10;99.90
45685;DHT22;46836;48.388;16.210;2023-05-07T02:56:26;13.10;99.90
45685;DHT22;46836;48.388;16.210;2023-05-07T02:58:53;13.00;99.90
45685;DHT22;46836;48.388;16.210;2023-05-07T03:01:20;12.90;99.90
45685;DHT22;46836;48.388;16.210;2023-05-07T03:03:47;13.00;99.90
45685;DHT22;46836;48.388;16.210;2023-05-07T03:06:14;12.90;99.90
45685;DHT22;46836;48.388;16.210;2023-05-07T03:08:42;13.00;99.90
45685;DHT22;46836;48.388;16.210;2023-05-07T03:11:10;13.00;99.90
45685;DHT22;46836;48.388;16.210;2023-05-07T03:13:37;13.00;99.90
45685;DHT22;46836;48.388;16.210;2023-05-07T03:16:04;13.00;99.90
45685;DHT22;46836;48.388;16.210;2023-05-07T03:18:31;13.00;99.90
45685;DHT22;46836;48.388;16.210;2023-05-07T03:20:58;12.90;99.90
45685;DHT22;46836;48.388;16.210;2023-05-07T03:23:25;12.90;99.90
45685;DHT22;46836;48.388;16.210;2023-05-07T03:25:52;12.90;99.90
45685;DHT22;46836;48.388;16.210;2023-05-07T03:28:19;12.90;99.90
45685;DHT22;46836;48.388;16.210;2023-05-07T03:30:47;12.90;99.90
45685;DHT22;46836;48.388;16.210;2023-05-07T03:33:14;12.90;99.90
45685;DHT22;46836;48.388;16.210;2023-05-07T03:35:41;12.90;99.90
45685;DHT22;46836;48.388;16.210;2023-05-07T03:38:08;12.90;99.90
45685;DHT22;46836;48.388;16.210;2023-05-07T03:40:35;12.90;99.90
45685;DHT22;46836;48.388;16.210;2023-05-07T03:43:02;12.90;99.90
45685;DHT22;46836;48.388;16.210;2023-05-07T03:45:29;12.90;99.90
45685;DHT22;46836;48.388;16.210;2023-05-07T03:47:56;12.90;99.90
45685;DHT22;46836;48.388;16.210;2023-05-07T03:50:23;12.90;99.90
45685;DHT22;46836;48.388;16.210;2023-05-07T03:52:50;12.90;99.90
45685;DHT22;46836;48.388;16.210;2023-05-07T03:55:17;12.90;99.90
45685;DHT22;46836;48.388;16.210;2023-05-07T03:57:44;12.90;99.90
45685;DHT22;46836;48.388;16.210;2023-05-07T04:00:12;12.90;99.90
45685;DHT22;46836;48.388;16.210;2023-05-07T04:02:39;12.90;99.90
45685;DHT22;46836;48.388;16.210;2023-05-07T04:05:07;12.90;99.90
45685;DHT22;46836;48.388;16.210;2023-05-07T04:07:34;12.90;99.90
45685;DHT22;46836;48.388;16.210;2023-05-07T04:10:02;12.90;99.90
45685;DHT22;46836;48.388;16.210;2023-05-07T04:12:29;12.90;99.90
45685;DHT22;46836;48.388;16.210;2023-05-07T04:14:56;12.90;99.90
45685;DHT22;46836;48.388;16.210;2023-05-07T04:17:22;13.00;99.90
45685;DHT22;46836;48.388;16.210;2023-05-07T04:19:49;13.00;99.90
45685;DHT22;46836;48.388;16.210;2023-05-07T04:22:16;13.00;99.90
45685;DHT22;46836;48.388;16.210;2023-05-07T04:24:44;13.00;99.90
45685;DHT22;46836;48.388;16.210;2023-05-07T04:27:11;13.00;99.90
45685;DHT22;46836;48.388;16.210;2023-05-07T04:29:38;13.10;99.90
45685;DHT22;46836;48.388;16.210;2023-05-07T04:32:09;13.10;99.90
45685;DHT22;46836;48.388;16.210;2023-05-07T04:34:37;13.20;99.90
45685;DHT22;46836;48.388;16.210;2023-05-07T04:37:04;13.20;99.90
45685;DHT22;46836;48.388;16.210;2023-05-07T04:39:32;13.20;99.90
45685;DHT22;46836;48.388;16.210;2023-05-07T04:41:59;13.20;99.90
45685;DHT22;46836;48.388;16.210;2023-05-07T04:44:27;13.30;99.90
45685;DHT22;46836;48.388;16.210;2023-05-07T04:46:54;13.40;99.90
45685;DHT22;46836;48.388;16.210;2023-05-07T04:49:21;13.40;99.90
45685;DHT22;46836;48.388;16.210;2023-05-07T04:51:48;13.50;99.90
45685;DHT22;46836;48.388;16.210;2023-05-07T04:54:15;13.60;99.90
45685;DHT22;46836;48.388;16.210;2023-05-07T04:56:42;13.60;99.90
45685;DHT22;46836;48.388;16.210;2023-05-07T04:59:09;13.70;99.90
45685;DHT22;46836;48.388;16.210;2023-05-07T05:01:36;13.70;99.90
45685;DHT22;46836;48.388;16.210;2023-05-07T05:04:03;13.80;99.90
45685;DHT22;46836;48.388;16.210;2023-05-07T05:06:30;14.00;99.90
45685;DHT22;46836;48.388;16.210;2023-05-07T05:08:58;14.30;99.90
45685;DHT22;46836;48.388;16.210;2023-05-07T05:11:25;14.40;99.90
45685;DHT22;46836;48.388;16.210;2023-05-07T05:13:52;14.70;99.90
45685;DHT22;46836;48.388;16.210;2023-05-07T05:16:19;15.00;99.90
45685;DHT22;46836;48.388;16.210;2023-05-07T05:18:46;14.90;99.90
45685;DHT22;46836;48.388;16.210;2023-05-07T05:21:13;14.80;99.90
45685;DHT22;46836;48.388;16.210;2023-05-07T05:23:40;14.80;99.90
45685;DHT22;46836;48.388;16.210;2023-05-07T05:26:07;14.80;99.90
45685;DHT22;46836;48.388;16.210;2023-05-07T05:28:35;14.90;99.90
45685;DHT22;46836;48.388;16.210;2023-05-07T05:31:02;14.90;99.90
45685;DHT22;46836;48.388;16.210;2023-05-07T05:33:29;14.80;99.90
45685;DHT22;46836;48.388;16.210;2023-05-07T05:35:56;14.80;99.90
45685;DHT22;46836;48.388;16.210;2023-05-07T05:38:23;14.80;99.90
45685;DHT22;46836;48.388;16.210;2023-05-07T05:40:50;14.80;99.90
45685;DHT22;46836;48.388;16.210;2023-05-07T05:43:17;14.80;99.90
45685;DHT22;46836;48.388;16.210;2023-05-07T05:45:44;14.80;99.90
45685;DHT22;46836;48.388;16.210;2023-05-07T05:48:11;14.90;99.90
45685;DHT22;46836;48.388;16.210;2023-05-07T05:50:38;14.90;99.90
45685;DHT22;46836;48.388;16.210;2023-05-07T05:53:05;14.90;99.90
45685;DHT22;46836;48.388;16.210;2023-05-07T05:55:32;14.90;99.90
45685;DHT22;46836;48.388;16.210;2023-05-07T05:58:01;14.80;99.90
45685;DHT22;46836;48.388;16.210;2023-05-07T06:00:28;14.80;99.90
45685;DHT22;46836;48.388;16.210;2023-05-07T06:02:56;14.90;99.90
45685;DHT22;46836;48.388;16.210;2023-05-07T06:05:23;14.90;99.90
45685;DHT22;46836;48.388;16.210;2023-05-07T06:07:50;15.00;99.90
45685;DHT22;46836;48.388;16.210;2023-05-07T06:10:17;15.00;99.90
45685;DHT22;46836;48.388;16.210;2023-05-07T06:12:44;14.90;99.90
45685;DHT22;46836;48.388;16.210;2023-05-07T06:15:11;15.00;99.90
45685;DHT22;46836;48.388;16.210;2023-05-07T06:17:38;14.90;99.90
45685;DHT22;46836;48.388;16.210;2023-05-07T06:20:06;15.00;99.90
45685;DHT22;46836;48.388;16.210;2023-05-07T06:22:34;15.00;99.90
45685;DHT22;46836;48.388;16.210;2023-05-07T06:25:01;15.10;99.90
45685;DHT22;46836;48.388;16.210;2023-05-07T06:27:28;15.10;99.90
45685;DHT22;46836;48.388;16.210;2023-05-07T06:29:55;15.10;99.90
45685;DHT22;46836;48.388;16.210;2023-05-07T06:32:22;15.10;99.90
45685;DHT22;46836;48.388;16.210;2023-05-07T06:34:49;15.20;99.90
45685;DHT22;46836;48.388;16.210;2023-05-07T06:37:16;15.30;99.90
45685;DHT22;46836;48.388;16.210;2023-05-07T06:39:44;15.40;99.90
45685;DHT22;46836;48.388;16.210;2023-05-07T06:42:14;15.50;99.90
45685;DHT22;46836;48.388;16.210;2023-05-07T06:44:41;15.70;99.90
45685;DHT22;46836;48.388;16.210;2023-05-07T06:47:08;15.80;99.90
45685;DHT22;46836;48.388;16.210;2023-05-07T06:49:35;16.00;99.90
45685;DHT22;46836;48.388;16.210;2023-05-07T06:52:02;16.20;99.90
45685;DHT22;46836;48.388;16.210;2023-05-07T06:54:29;16.20;99.90
45685;DHT22;46836;48.388;16.210;2023-05-07T06:56:56;16.20;99.90
45685;DHT22;46836;48.388;16.210;2023-05-07T06:59:24;16.20;99.90
45685;DHT22;46836;48.388;16.210;2023-05-07T07:01:51;16.20;99.90
45685;DHT22;46836;48.388;16.210;2023-05-07T07:04:18;16.20;99.90
45685;DHT22;46836;48.388;16.210;2023-05-07T07:06:45;16.20;99.90
45685;DHT22;46836;48.388;16.210;2023-05-07T07:09:12;16.20;99.90
45685;DHT22;46836;48.388;16.210;2023-05-07T07:11:39;16.20;99.90
45685;DHT22;46836;48.388;16.210;2023-05-07T07:14:06;16.30;99.90
45685;DHT22;46836;48.388;16.210;2023-05-07T07:16:34;16.40;99.90
45685;DHT22;46836;48.388;16.210;2023-05-07T07:19:01;16.50;99.90
45685;DHT22;46836;48.388;16.210;2023-05-07T07:21:28;16.50;99.90
45685;DHT22;46836;48.388;16.210;2023-05-07T07:23:55;16.60;99.90
45685;DHT22;46836;48.388;16.210;2023-05-07T07:26:22;16.60;99.90
45685;DHT22;46836;48.388;16.210;2023-05-07T07:28:49;16.60;99.90
45685;DHT22;46836;48.388;16.210;2023-05-07T07:31:16;16.60;99.90
45685;DHT22;46836;48.388;16.210;2023-05-07T07:33:43;16.60;99.90
45685;DHT22;46836;48.388;16.210;2023-05-07T07:36:10;16.70;99.90
45685;DHT22;46836;48.388;16.210;2023-05-07T07:38:37;16.90;99.90
45685;DHT22;46836;48.388;16.210;2023-05-07T07:41:04;17.00;99.90
45685;DHT22;46836;48.388;16.210;2023-05-07T07:43:32;16.90;99.90
45685;DHT22;46836;48.388;16.210;2023-05-07T07:45:58;16.90;99.90
45685;DHT22;46836;48.388;16.210;2023-05-07T07:48:26;17.10;99.90
45685;DHT22;46836;48.388;16.210;2023-05-07T07:50:53;17.20;99.90
45685;DHT22;46836;48.388;16.210;2023-05-07T07:53:19;17.20;99.90
45685;DHT22;46836;48.388;16.210;2023-05-07T07:55:47;17.10;99.90
45685;DHT22;46836;48.388;16.210;2023-05-07T07:58:14;17.10;99.90
45685;DHT22;46836;48.388;16.210;2023-05-07T08:00:40;17.10;99.90
45685;DHT22;46836;48.388;16.210;2023-05-07T08:03:11;17.10;99.90
45685;DHT22;46836;48.388;16.210;2023-05-07T08:05:38;17.20;99.90
45685;DHT22;46836;48.388;16.210;2023-05-07T08:08:05;17.30;99.90
45685;DHT22;46836;48.388;16.210;2023-05-07T08:10:33;17.40;99.90
45685;DHT22;46836;48.388;16.210;2023-05-07T08:13:01;17.50;99.90
45685;DHT22;46836;48.388;16.210;2023-05-07T08:15:31;17.50;99.90
45685;DHT22;46836;48.388;16.210;2023-05-07T08:17:58;17.60;99.90
45685;DHT22;46836;48.388;16.210;2023-05-07T08:20:27;17.60;99.90
45685;DHT22;46836;48.388;16.210;2023-05-07T08:22:54;17.60;99.90
45685;DHT22;46836;48.388;16.210;2023-05-07T08:25:22;17.70;99.90
45685;DHT22;46836;48.388;16.210;2023-05-07T08:27:49;17.70;99.90
45685;DHT22;46836;48.388;16.210;2023-05-07T08:30:16;17.80;99.90
45685;DHT22;46836;48.388;16.210;2023-05-07T08:32:43;17.80;99.90
45685;DHT22;46836;48.388;16.210;2023-05-07T08:35:10;18.00;99.90
45685;DHT22;46836;48.388;16.210;2023-05-07T08:37:37;18.10;99.90
45685;DHT22;46836;48.388;16.210;2023-05-07T08:40:05;18.40;99.90
45685;DHT22;46836;48.388;16.210;2023-05-07T08:42:37;18.70;99.90
45685;DHT22;46836;48.388;16.210;2023-05-07T08:45:10;18.80;99.90
45685;DHT22;46836;48.388;16.210;2023-05-07T08:47:46;19.00;99.90
45685;DHT22;46836;48.388;16.210;2023-05-07T08:50:14;19.20;99.90
45685;DHT22;46836;48.388;16.210;2023-05-07T08:52:42;19.30;99.90
45685;DHT22;46836;48.388;16.210;2023-05-07T08:55:10;19.50;99.90
45685;DHT22;46836;48.388;16.210;2023-05-07T08:57:37;19.60;99.90
45685;DHT22;46836;48.388;16.210;2023-05-07T09:00:06;19.50;99.90
45685;DHT22;46836;48.388;16.210;2023-05-07T09:02:37;19.50;99.90
45685;DHT22;46836;48.388;16.210;2023-05-07T09:05:05;19.50;99.90
45685;DHT22;46836;48.388;16.210;2023-05-07T09:07:32;19.30;99.90
45685;DHT22;46836;48.388;16.210;2023-05-07T09:10:02;19.30;99.90
45685;DHT22;46836;48.388;16.210;2023-05-07T09:12:31;19.40;99.90
45685;DHT22;46836;48.388;16.210;2023-05-07T09:14:59;19.60;99.90
45685;DHT22;46836;48.388;16.210;2023-05-07T09:17:27;19.50;99.90
45685;DHT22;46836;48.388;16.210;2023-05-07T09:19:54;19.40;99.90
45685;DHT22;46836;48.388;16.210;2023-05-07T09:22:22;19.20;99.90
45685;DHT22;46836;48.388;16.210;2023-05-07T09:24:50;19.00;99.90
45685;DHT22;46836;48.388;16.210;2023-05-07T09:27:17;19.00;99.90
45685;DHT22;46836;48.388;16.210;2023-05-07T09:29:44;19.00;99.90
45685;DHT22;46836;48.388;16.210;2023-05-07T09:32:11;19.10;99.90
45685;DHT22;46836;48.388;16.210;2023-05-07T09:34:38;19.10;99.90
45685;DHT22;46836;48.388;16.210;2023-05-07T09:37:06;19.00;99.90
45685;DHT22;46836;48.388;16.210;2023-05-07T09:42:08;19.10;99.90
45685;DHT22;46836;48.388;16.210;2023-05-07T09:44:35;19.20;99.90
45685;DHT22;46836;48.388;16.210;2023-05-07T09:47:05;19.20;99.90
45685;DHT22;46836;48.388;16.210;2023-05-07T09:49:37;19.20;99.90
45685;DHT22;46836;48.388;16.210;2023-05-07T09:52:06;19.30;99.90
45685;DHT22;46836;48.388;16.210;2023-05-07T09:54:36;19.60;99.90
45685;DHT22;46836;48.388;16.210;2023-05-07T09:57:05;19.60;99.90
45685;DHT22;46836;48.388;16.210;2023-05-07T09:59:34;19.70;99.90
45685;DHT22;46836;48.388;16.210;2023-05-07T10:02:04;19.80;99.90
45685;DHT22;46836;48.388;16.210;2023-05-07T10:04:32;19.90;99.90
45685;DHT22;46836;48.388;16.210;2023-05-07T10:06:59;20.00;99.90
45685;DHT22;46836;48.388;16.210;2023-05-07T10:09:28;19.90;99.90
45685;DHT22;46836;48.388;16.210;2023-05-07T10:11:56;19.90;99.90
45685;DHT22;46836;48.388;16.210;2023-05-07T10:14:24;20.00;99.90
45685;DHT22;46836;48.388;16.210;2023-05-07T10:16:52;20.00;99.90
45685;DHT22;46836;48.388;16.210;2023-05-07T10:19:20;20.00;99.90
45685;DHT22;46836;48.388;16.210;2023-05-07T10:21:55;20.10;99.90
45685;DHT22;46836;48.388;16.210;2023-05-07T10:24:30;20.20;99.90
45685;DHT22;46836;48.388;16.210;2023-05-07T10:27:00;20.00;99.90
45685;DHT22;46836;48.388;16.210;2023-05-07T10:29:53;19.80;99.90
45685;DHT22;46836;48.388;16.210;2023-05-07T10:32:47;20.00;99.90
45685;DHT22;46836;48.388;16.210;2023-05-07T10:35:21;20.40;99.90
45685;DHT22;46836;48.388;16.210;2023-05-07T10:37:50;20.50;99.90
45685;DHT22;46836;48.388;16.210;2023-05-07T10:40:19;20.40;99.90
45685;DHT22;46836;48.388;16.210;2023-05-07T10:42:54;20.30;99.90
45685;DHT22;46836;48.388;16.210;2023-05-07T10:45:22;20.40;99.90
45685;DHT22;46836;48.388;16.210;2023-05-07T10:51:22;20.20;99.90
45685;DHT22;46836;48.388;16.210;2023-05-07T10:56:38;20.20;99.90
45685;DHT22;46836;48.388;16.210;2023-05-07T11:01:54;20.30;99.90
45685;DHT22;46836;48.388;16.210;2023-05-07T11:04:21;20.40;99.90
45685;DHT22;46836;48.388;16.210;2023-05-07T11:07:21;20.60;99.90
45685;DHT22;46836;48.388;16.210;2023-05-07T11:15:15;20.40;99.90
45685;DHT22;46836;48.388;16.210;2023-05-07T11:18:00;20.50;99.90
45685;DHT22;46836;48.388;16.210;2023-05-07T11:20:47;20.50;99.90
45685;DHT22;46836;48.388;16.210;2023-05-07T11:26:15;20.70;99.90
45685;DHT22;46836;48.388;16.210;2023-05-07T11:28:43;20.90;99.90
45685;DHT22;46836;48.388;16.210;2023-05-07T11:31:11;21.10;99.90
45685;DHT22;46836;48.388;16.210;2023-05-07T11:33:38;21.30;99.90
45685;DHT22;46836;48.388;16.210;2023-05-07T11:36:08;21.30;99.90
45685;DHT22;46836;48.388;16.210;2023-05-07T11:38:36;21.40;99.90
45685;DHT22;46836;48.388;16.210;2023-05-07T11:41:04;21.60;99.90
45685;DHT22;46836;48.388;16.210;2023-05-07T11:43:32;21.50;99.90
45685;DHT22;46836;48.388;16.210;2023-05-07T11:46:09;21.50;99.90
45685;DHT22;46836;48.388;16.210;2023-05-07T11:48:37;21.00;99.90
45685;DHT22;46836;48.388;16.210;2023-05-07T11:51:06;20.80;99.90
45685;DHT22;46836;48.388;16.210;2023-05-07T11:53:41;20.80;99.90
45685;DHT22;46836;48.388;16.210;2023-05-07T11:56:13;20.80;99.90
45685;DHT22;46836;48.388;16.210;2023-05-07T11:58:41;21.00;99.90
45685;DHT22;46836;48.388;16.210;2023-05-07T12:01:10;21.00;99.90
45685;DHT22;46836;48.388;16.210;2023-05-07T12:03:40;21.00;99.90
45685;DHT22;46836;48.388;16.210;2023-05-07T12:06:11;20.80;99.90
45685;DHT22;46836;48.388;16.210;2023-05-07T12:08:40;20.80;99.90
45685;DHT22;46836;48.388;16.210;2023-05-07T12:11:11;20.90;99.90
45685;DHT22;46836;48.388;16.210;2023-05-07T12:13:40;21.10;99.90
45685;DHT22;46836;48.388;16.210;2023-05-07T12:16:08;21.20;99.90
45685;DHT22;46836;48.388;16.210;2023-05-07T12:18:36;21.20;99.90
45685;DHT22;46836;48.388;16.210;2023-05-07T12:21:05;21.10;99.90
45685;DHT22;46836;48.388;16.210;2023-05-07T12:23:36;21.00;99.90
45685;DHT22;46836;48.388;16.210;2023-05-07T12:26:04;21.00;99.90
45685;DHT22;46836;48.388;16.210;2023-05-07T12:28:37;21.20;99.90
45685;DHT22;46836;48.388;16.210;2023-05-07T12:31:05;21.40;99.90
45685;DHT22;46836;48.388;16.210;2023-05-07T12:33:34;21.30;99.90
45685;DHT22;46836;48.388;16.210;2023-05-07T12:36:06;21.20;99.90
45685;DHT22;46836;48.388;16.210;2023-05-07T12:38:38;21.50;99.90
45685;DHT22;46836;48.388;16.210;2023-05-07T12:41:08;21.60;99.90
45685;DHT22;46836;48.388;16.210;2023-05-07T12:43:36;21.70;99.90
45685;DHT22;46836;48.388;16.210;2023-05-07T12:46:06;21.90;99.90
45685;DHT22;46836;48.388;16.210;2023-05-07T12:48:37;22.00;99.90
45685;DHT22;46836;48.388;16.210;2023-05-07T12:51:05;22.20;99.90
45685;DHT22;46836;48.388;16.210;2023-05-07T12:53:33;22.20;99.90
45685;DHT22;46836;48.388;16.210;2023-05-07T12:56:00;22.20;99.90
45685;DHT22;46836;48.388;16.210;2023-05-07T12:58:30;21.90;99.90
45685;DHT22;46836;48.388;16.210;2023-05-07T13:01:00;21.80;99.90
45685;DHT22;46836;48.388;16.210;2023-05-07T13:03:35;21.70;99.90
45685;DHT22;46836;48.388;16.210;2023-05-07T13:06:06;21.60;99.90
45685;DHT22;46836;48.388;16.210;2023-05-07T13:08:36;21.70;99.90
45685;DHT22;46836;48.388;16.210;2023-05-07T13:11:06;21.80;99.90
45685;DHT22;46836;48.388;16.210;2023-05-07T13:13:36;21.80;99.90
45685;DHT22;46836;48.388;16.210;2023-05-07T13:16:05;22.10;99.90
45685;DHT22;46836;48.388;16.210;2023-05-07T13:18:33;22.10;99.90
45685;DHT22;46836;48.388;16.210;2023-05-07T13:21:01;22.10;99.90
45685;DHT22;46836;48.388;16.210;2023-05-07T13:23:29;22.20;99.90
45685;DHT22;46836;48.388;16.210;2023-05-07T13:25:56;22.30;99.90
45685;DHT22;46836;48.388;16.210;2023-05-07T13:28:24;22.30;99.90
45685;DHT22;46836;48.388;16.210;2023-05-07T13:30:53;22.10;99.90
45685;DHT22;46836;48.388;16.210;2023-05-07T13:33:21;22.00;99.90
45685;DHT22;46836;48.388;16.210;2023-05-07T13:35:48;22.10;99.90
45685;DHT22;46836;48.388;16.210;2023-05-07T13:38:15;22.20;99.90
45685;DHT22;46836;48.388;16.210;2023-05-07T13:40:43;22.30;99.90
45685;DHT22;46836;48.388;16.210;2023-05-07T13:43:10;22.40;99.90
45685;DHT22;46836;48.388;16.210;2023-05-07T13:45:37;22.60;99.90
45685;DHT22;46836;48.388;16.210;2023-05-07T13:48:05;22.50;99.90
45685;DHT22;46836;48.388;16.210;2023-05-07T13:50:32;22.50;99.90
45685;DHT22;46836;48.388;16.210;2023-05-07T13:52:59;22.50;99.90
45685;DHT22;46836;48.388;16.210;2023-05-07T13:55:29;22.50;99.90
45685;DHT22;46836;48.388;16.210;2023-05-07T13:57:58;22.30;99.90
45685;DHT22;46836;48.388;16.210;2023-05-07T14:00:26;22.00;99.90
45685;DHT22;46836;48.388;16.210;2023-05-07T14:02:54;21.60;99.90
45685;DHT22;46836;48.388;16.210;2023-05-07T14:05:22;21.40;99.90
45685;DHT22;46836;48.388;16.210;2023-05-07T14:07:51;21.20;99.90
45685;DHT22;46836;48.388;16.210;2023-05-07T14:10:19;21.30;99.90
45685;DHT22;46836;48.388;16.210;2023-05-07T14:12:47;21.70;99.90
45685;DHT22;46836;48.388;16.210;2023-05-07T14:15:15;22.10;99.90
45685;DHT22;46836;48.388;16.210;2023-05-07T14:17:43;22.50;99.90
45685;DHT22;46836;48.388;16.210;2023-05-07T14:20:12;22.50;99.90
45685;DHT22;46836;48.388;16.210;2023-05-07T14:22:39;22.30;99.90
45685;DHT22;46836;48.388;16.210;2023-05-07T14:25:08;22.30;99.90
45685;DHT22;46836;48.388;16.210;2023-05-07T14:27:40;22.10;99.90
45685;DHT22;46836;48.388;16.210;2023-05-07T14:30:07;22.20;99.90
45685;DHT22;46836;48.388;16.210;2023-05-07T14:32:36;22.30;99.90
45685;DHT22;46836;48.388;16.210;2023-05-07T14:35:03;22.40;99.90
45685;DHT22;46836;48.388;16.210;2023-05-07T14:37:30;22.40;99.90
45685;DHT22;46836;48.388;16.210;2023-05-07T14:39:57;22.30;99.90
45685;DHT22;46836;48.388;16.210;2023-05-07T14:42:24;22.20;99.90
45685;DHT22;46836;48.388;16.210;2023-05-07T14:44:52;22.20;99.90
45685;DHT22;46836;48.388;16.210;2023-05-07T14:47:20;22.40;99.90
45685;DHT22;46836;48.388;16.210;2023-05-07T14:49:47;22.40;99.90
45685;DHT22;46836;48.388;16.210;2023-05-07T14:52:14;22.20;99.90
45685;DHT22;46836;48.388;16.210;2023-05-07T14:54:41;22.10;99.90
45685;DHT22;46836;48.388;16.210;2023-05-07T14:57:10;22.00;99.90
45685;DHT22;46836;48.388;16.210;2023-05-07T14:59:39;21.80;99.90
45685;DHT22;46836;48.388;16.210;2023-05-07T15:02:09;21.70;99.90
45685;DHT22;46836;48.388;16.210;2023-05-07T15:04:37;21.70;99.90
45685;DHT22;46836;48.388;16.210;2023-05-07T15:07:14;21.70;99.90
45685;DHT22;46836;48.388;16.210;2023-05-07T15:09:42;21.80;99.90
45685;DHT22;46836;48.388;16.210;2023-05-07T15:12:11;21.80;99.90
45685;DHT22;46836;48.388;16.210;2023-05-07T15:14:39;21.60;99.90
45685;DHT22;46836;48.388;16.210;2023-05-07T15:17:06;21.60;99.90
45685;DHT22;46836;48.388;16.210;2023-05-07T15:19:34;21.60;99.90
45685;DHT22;46836;48.388;16.210;2023-05-07T15:22:01;21.60;99.90
45685;DHT22;46836;48.388;16.210;2023-05-07T15:24:29;21.40;99.90
45685;DHT22;46836;48.388;16.210;2023-05-07T15:26:57;21.30;99.90
45685;DHT22;46836;48.388;16.210;2023-05-07T15:29:27;21.10;99.90
45685;DHT22;46836;48.388;16.210;2023-05-07T15:31:54;21.10;99.90
45685;DHT22;46836;48.388;16.210;2023-05-07T15:34:22;21.00;99.90
45685;DHT22;46836;48.388;16.210;2023-05-07T15:36:50;20.90;99.90
45685;DHT22;46836;48.388;16.210;2023-05-07T15:39:17;20.80;99.90
45685;DHT22;46836;48.388;16.210;2023-05-07T15:41:44;20.70;99.90